Hasty, Arkansas
Current Conditions -  °F | °C
As of 10:53 AM on Monday 22 Dec 2014 (Local Time) from KHRO Reporting Station
Haze Haze  
Wind Chill: 42°   Ceiling: 400
Heat Index: 47°   Visibility: 3mi
Dew Point: 46°   Wind: 10mph
Humidity: 97%   Direction: 150°SSE
Pressure: 29.62"   Gusts: NA
Location:  36.02°N, 93.05°W
Report Text: KHRO 221653Z AUTO 15009KT 3SM BR OVC004 08/08 A2962 RMK AO2 RAB10E47 CIG 002V007 SLP031 P0001 T00830078
Loading
Personal Weather Stations






























Interactive Weather Map New forecast layout! Learn more

10-Day Weather Forecast

Advertisements
Track Severe Weather on mobile